BAW2 KJFK-EGLC
Flight info
| Callsign | BAW2 |
|---|---|
| Flight time | N/A |
| Altitude | 37000 |
| Route | SKORR6 SKORR DCT LLUND Q22 FOXWD DCT COPLY Q475 PERLU DCT NICSO/M079F370 DCT 48N050W 49N040W 50N030W 51N020W DCT DINIM DCT ELSOX DCT TUVEN/N0454F370 DCT HON |
| Aircraft | A318/M-SDE3FGHIRWY/LB1 |
Departure
| Time | 2026-05-07 11:23 |
|---|---|
| Airport | John F. Kennedy International Airport (KJFK) |
Arrival
| Time | N/A |
|---|---|
| Airport | London City Airport (EGLC) |
| Time | Latitude | Longitude | Altitude | Speed | Heading |
|---|---|---|---|---|---|
| 2026-05-07 11:02 | 40.64272 | -73.77947 | 22 ft | 0 kts | 11° |
| 2026-05-07 11:12 | 40.64265 | -73.77948 | 20 ft | 2 kts | 11° |
| 2026-05-07 11:12 | 40.64240 | -73.77955 | 20 ft | 0 kts | 11° |
| 2026-05-07 11:13 | 40.64217 | -73.77960 | 21 ft | 6 kts | 11° |
| 2026-05-07 11:13 | 40.64176 | -73.77954 | 23 ft | 6 kts | 360° |
| 2026-05-07 11:13 | 40.64136 | -73.77940 | 21 ft | 6 kts | 334° |
| 2026-05-07 11:13 | 40.64098 | -73.77915 | 23 ft | 6 kts | 330° |
| 2026-05-07 11:14 | 40.64080 | -73.77872 | 24 ft | 6 kts | 248° |
| 2026-05-07 11:14 | 40.64086 | -73.77853 | 23 ft | 0 kts | 242° |
| 2026-05-07 11:15 | 40.64080 | -73.77868 | 23 ft | 5 kts | 243° |
| 2026-05-07 11:15 | 40.64071 | -73.77892 | 22 ft | 8 kts | 243° |
| 2026-05-07 11:16 | 40.64019 | -73.77948 | 20 ft | 11 kts | 195° |
| 2026-05-07 11:16 | 40.63951 | -73.77942 | 20 ft | 9 kts | 174° |
| 2026-05-07 11:16 | 40.63890 | -73.77933 | 20 ft | 9 kts | 173° |
| 2026-05-07 11:16 | 40.63806 | -73.77920 | 20 ft | 13 kts | 172° |
| 2026-05-07 11:17 | 40.63720 | -73.77905 | 20 ft | 12 kts | 173° |
| 2026-05-07 11:17 | 40.63643 | -73.77894 | 20 ft | 11 kts | 174° |
| 2026-05-07 11:17 | 40.63570 | -73.77857 | 20 ft | 14 kts | 132° |
| 2026-05-07 11:17 | 40.63509 | -73.77735 | 21 ft | 18 kts | 147° |
| 2026-05-07 11:18 | 40.63388 | -73.77802 | 22 ft | 21 kts | 209° |
| 2026-05-07 11:18 | 40.63288 | -73.77761 | 26 ft | 17 kts | 119° |
| 2026-05-07 11:18 | 40.63223 | -73.77614 | 23 ft | 21 kts | 121° |
| 2026-05-07 11:18 | 40.63141 | -73.77434 | 22 ft | 25 kts | 121° |
| 2026-05-07 11:19 | 40.63050 | -73.77232 | 21 ft | 27 kts | 120° |
| 2026-05-07 11:19 | 40.62943 | -73.77088 | 21 ft | 18 kts | 213° |
| 2026-05-07 11:19 | 40.62835 | -73.77174 | 22 ft | 19 kts | 211° |
| 2026-05-07 11:19 | 40.62821 | -73.77228 | 22 ft | 0 kts | 304° |
| 2026-05-07 11:20 | 40.62822 | -73.77228 | 22 ft | 0 kts | 304° |
| 2026-05-07 11:22 | 40.62835 | -73.77254 | 22 ft | 14 kts | 303° |
| 2026-05-07 11:22 | 40.62990 | -73.77592 | 28 ft | 72 kts | 301° |
| 2026-05-07 11:23 | 40.63342 | -73.78372 | 21 ft | 126 kts | 301° |
| 2026-05-07 11:23 | 40.63860 | -73.79533 | 172 ft | 158 kts | 301° |
| 2026-05-07 11:23 | 40.64408 | -73.80796 | 768 ft | 161 kts | 295° |
| 2026-05-07 11:23 | 40.64690 | -73.82243 | 1443 ft | 170 kts | 282° |
| 2026-05-07 11:24 | 40.64612 | -73.83941 | 1689 ft | 205 kts | 263° |
| 2026-05-07 11:24 | 40.63971 | -73.85791 | 2072 ft | 240 kts | 240° |
| 2026-05-07 11:24 | 40.63098 | -73.87735 | 2730 ft | 252 kts | 257° |
| 2026-05-07 11:24 | 40.63166 | -73.89949 | 3687 ft | 244 kts | 295° |
| 2026-05-07 11:25 | 40.64305 | -73.91575 | 4718 ft | 250 kts | 329° |
| 2026-05-07 11:25 | 40.66046 | -73.91995 | 5639 ft | 268 kts | 1° |
| 2026-05-07 11:25 | 40.67814 | -73.90983 | 6457 ft | 294 kts | 34° |
| 2026-05-07 11:25 | 40.69194 | -73.88897 | 7182 ft | 310 kts | 53° |
| 2026-05-07 11:26 | 40.70415 | -73.86497 | 7922 ft | 317 kts | 46° |
| 2026-05-07 11:26 | 40.72133 | -73.84726 | 8635 ft | 314 kts | 19° |
| 2026-05-07 11:26 | 40.74194 | -73.83886 | 9361 ft | 311 kts | 4° |
| 2026-05-07 11:26 | 40.76328 | -73.83121 | 10089 ft | 323 kts | 9° |
| 2026-05-07 11:27 | 40.78531 | -73.82127 | 10437 ft | 348 kts | 12° |
| 2026-05-07 11:27 | 40.80881 | -73.80977 | 10658 ft | 372 kts | 13° |
| 2026-05-07 11:27 | 40.83347 | -73.79600 | 10808 ft | 400 kts | 22° |
| 2026-05-07 11:27 | 40.85731 | -73.77518 | 11219 ft | 420 kts | 34° |
| 2026-05-07 11:28 | 40.87879 | -73.74839 | 11787 ft | 430 kts | 46° |
| 2026-05-07 11:28 | 40.89723 | -73.71668 | 12382 ft | 438 kts | 53° |
| 2026-05-07 11:28 | 40.91502 | -73.68372 | 12983 ft | 443 kts | 53° |
| 2026-05-07 11:28 | 40.93300 | -73.65027 | 13557 ft | 449 kts | 53° |
| 2026-05-07 11:29 | 40.95105 | -73.61645 | 14126 ft | 453 kts | 53° |
| 2026-05-07 11:29 | 40.96925 | -73.58217 | 14667 ft | 457 kts | 53° |
| 2026-05-07 11:29 | 40.98757 | -73.54748 | 15204 ft | 462 kts | 53° |
| 2026-05-07 11:29 | 41.00604 | -73.51238 | 15775 ft | 467 kts | 53° |
| 2026-05-07 11:30 | 41.02469 | -73.47693 | 16313 ft | 472 kts | 52° |
| 2026-05-07 11:30 | 41.04360 | -73.44104 | 16860 ft | 476 kts | 52° |
| 2026-05-07 11:30 | 41.06264 | -73.40487 | 17408 ft | 481 kts | 52° |
| 2026-05-07 11:30 | 41.08187 | -73.36832 | 17961 ft | 486 kts | 52° |
| 2026-05-07 11:31 | 41.10132 | -73.33139 | 18457 ft | 490 kts | 52° |
| 2026-05-07 11:31 | 41.12092 | -73.29415 | 18866 ft | 495 kts | 52° |
| 2026-05-07 11:31 | 41.14046 | -73.25696 | 19298 ft | 500 kts | 52° |
| 2026-05-07 11:31 | 41.16040 | -73.21893 | 19730 ft | 505 kts | 52° |
| 2026-05-07 11:32 | 41.20081 | -73.14168 | 20611 ft | 514 kts | 51° |
| 2026-05-07 11:32 | 41.22127 | -73.10247 | 21000 ft | 519 kts | 51° |
| 2026-05-07 11:32 | 41.24191 | -73.06285 | 21381 ft | 523 kts | 51° |
| 2026-05-07 11:33 | 41.26264 | -73.02295 | 21770 ft | 528 kts | 51° |
| 2026-05-07 11:33 | 41.28357 | -72.98259 | 22130 ft | 532 kts | 51° |
| 2026-05-07 11:33 | 41.30418 | -72.94146 | 22424 ft | 537 kts | 53° |
| 2026-05-07 11:33 | 41.32404 | -72.89910 | 22822 ft | 541 kts | 56° |
| 2026-05-07 11:34 | 41.34326 | -72.85583 | 23239 ft | 546 kts | 57° |
| 2026-05-07 11:34 | 41.36225 | -72.81174 | 23562 ft | 550 kts | 57° |
| 2026-05-07 11:34 | 41.38126 | -72.76736 | 23852 ft | 554 kts | 57° |
| 2026-05-07 11:34 | 41.40055 | -72.72286 | 24143 ft | 557 kts | 56° |
| 2026-05-07 11:35 | 41.42021 | -72.67823 | 24439 ft | 560 kts | 56° |
| 2026-05-07 11:35 | 41.44021 | -72.63347 | 24734 ft | 563 kts | 55° |
| 2026-05-07 11:35 | 41.46041 | -72.58862 | 24994 ft | 566 kts | 55° |
| 2026-05-07 11:35 | 41.48076 | -72.54343 | 25320 ft | 568 kts | 56° |
| 2026-05-07 11:36 | 41.50106 | -72.49809 | 25613 ft | 571 kts | 56° |
| 2026-05-07 11:36 | 41.52141 | -72.45238 | 25890 ft | 574 kts | 56° |
| 2026-05-07 11:36 | 41.54177 | -72.40634 | 26170 ft | 577 kts | 56° |
| 2026-05-07 11:36 | 41.56214 | -72.35999 | 26443 ft | 580 kts | 56° |
| 2026-05-07 11:37 | 41.58256 | -72.31342 | 26708 ft | 582 kts | 56° |
| 2026-05-07 11:37 | 41.60308 | -72.26666 | 26969 ft | 585 kts | 56° |
| 2026-05-07 11:37 | 41.62375 | -72.21970 | 27233 ft | 587 kts | 56° |
| 2026-05-07 11:37 | 41.64446 | -72.17263 | 27520 ft | 590 kts | 56° |
| 2026-05-07 11:38 | 41.66502 | -72.12577 | 27752 ft | 593 kts | 56° |
| 2026-05-07 11:38 | 41.68586 | -72.07815 | 28017 ft | 595 kts | 56° |
| 2026-05-07 11:38 | 41.70676 | -72.03031 | 28387 ft | 595 kts | 56° |
| 2026-05-07 11:38 | 41.72763 | -71.98247 | 28742 ft | 595 kts | 56° |
| 2026-05-07 11:39 | 41.74853 | -71.93450 | 29098 ft | 596 kts | 56° |
| 2026-05-07 11:39 | 41.76941 | -71.88654 | 29413 ft | 596 kts | 56° |
| 2026-05-07 11:39 | 41.79023 | -71.83858 | 29863 ft | 596 kts | 56° |
| 2026-05-07 11:39 | 41.81216 | -71.79159 | 30143 ft | 593 kts | 49° |
| 2026-05-07 11:40 | 41.83683 | -71.74761 | 30459 ft | 590 kts | 46° |
| 2026-05-07 11:40 | 41.86173 | -71.70374 | 30794 ft | 590 kts | 46° |
| 2026-05-07 11:40 | 41.88655 | -71.65996 | 31144 ft | 590 kts | 46° |
| 2026-05-07 11:40 | 41.91134 | -71.61613 | 31498 ft | 589 kts | 46° |
| 2026-05-07 11:41 | 41.93616 | -71.57211 | 31908 ft | 589 kts | 46° |
| 2026-05-07 11:41 | 41.96088 | -71.52820 | 32168 ft | 589 kts | 46° |
| 2026-05-07 11:41 | 41.98517 | -71.48494 | 32539 ft | 588 kts | 46° |
| 2026-05-07 11:41 | 42.00980 | -71.44098 | 32914 ft | 587 kts | 46° |
| 2026-05-07 11:42 | 42.03436 | -71.39714 | 33285 ft | 587 kts | 45° |
| 2026-05-07 11:42 | 42.05890 | -71.35331 | 33655 ft | 586 kts | 45° |
| 2026-05-07 11:42 | 42.08341 | -71.30947 | 34004 ft | 585 kts | 45° |
| 2026-05-07 11:42 | 42.10793 | -71.26552 | 34315 ft | 586 kts | 45° |
| 2026-05-07 11:43 | 42.13238 | -71.22162 | 34623 ft | 586 kts | 45° |
| 2026-05-07 11:43 | 42.15684 | -71.17768 | 34956 ft | 585 kts | 45° |
| 2026-05-07 11:43 | 42.18124 | -71.13383 | 35295 ft | 584 kts | 45° |
| 2026-05-07 11:43 | 42.20554 | -71.09005 | 35642 ft | 583 kts | 45° |
| 2026-05-07 11:44 | 42.22977 | -71.04632 | 35995 ft | 581 kts | 45° |
| 2026-05-07 11:44 | 42.25398 | -71.00254 | 36356 ft | 581 kts | 45° |
| 2026-05-07 11:44 | 42.27816 | -70.95885 | 36620 ft | 581 kts | 45° |
| 2026-05-07 11:44 | 42.30231 | -70.91515 | 36825 ft | 581 kts | 45° |
| 2026-05-07 11:45 | 42.32636 | -70.87148 | 36815 ft | 579 kts | 45° |
| 2026-05-07 11:45 | 42.37421 | -70.78417 | 36850 ft | 576 kts | 45° |
| 2026-05-07 11:46 | 42.42193 | -70.69698 | 36838 ft | 576 kts | 46° |
| 2026-05-07 11:46 | 42.46970 | -70.60966 | 36846 ft | 577 kts | 46° |
| 2026-05-07 11:47 | 42.51152 | -70.51589 | 36812 ft | 589 kts | 63° |
| 2026-05-07 11:47 | 42.54395 | -70.41444 | 36834 ft | 590 kts | 63° |
| 2026-05-07 11:48 | 42.63535 | -70.12939 | 36865 ft | 586 kts | 63° |
| 2026-05-07 11:48 | 42.74927 | -69.76634 | 36861 ft | 581 kts | 63° |
| 2026-05-07 11:49 | 42.78091 | -69.66428 | 36916 ft | 587 kts | 64° |
| 2026-05-07 11:49 | 42.79162 | -69.62962 | 36814 ft | 587 kts | 64° |
| 2026-05-07 11:49 | 42.80739 | -69.57853 | 36808 ft | 584 kts | 64° |
| 2026-05-07 11:50 | 42.85028 | -69.43937 | 36848 ft | 587 kts | 64° |
| 2026-05-07 11:50 | 42.91301 | -69.23456 | 36793 ft | 584 kts | 64° |
| 2026-05-07 11:51 | 42.97482 | -69.03061 | 36786 ft | 584 kts | 64° |
| 2026-05-07 11:51 | 43.04062 | -68.81233 | 36804 ft | 584 kts | 64° |
| 2026-05-07 11:52 | 43.16325 | -68.40011 | 36844 ft | 585 kts | 65° |
| 2026-05-07 11:52 | 43.28425 | -67.98656 | 36831 ft | 584 kts | 65° |
| 2026-05-07 11:53 | 43.40387 | -67.57174 | 36828 ft | 584 kts | 66° |
| 2026-05-07 11:53 | 43.52158 | -67.15531 | 36769 ft | 581 kts | 66° |
| 2026-05-07 11:54 | 43.64814 | -66.74666 | 36707 ft | 576 kts | 60° |
| 2026-05-07 11:54 | 43.77742 | -66.34744 | 36967 ft | 566 kts | 63° |
| 2026-05-07 11:55 | 43.90554 | -65.94741 | 36830 ft | 569 kts | 63° |
| 2026-05-07 11:55 | 43.98311 | -65.70159 | 36852 ft | 564 kts | 64° |
| 2026-05-07 11:56 | 44.04554 | -65.50141 | 36850 ft | 562 kts | 63° |
| 2026-05-07 11:56 | 44.10790 | -65.30081 | 36748 ft | 565 kts | 64° |
| 2026-05-07 11:57 | 44.16970 | -65.10024 | 36717 ft | 564 kts | 63° |
| 2026-05-07 11:57 | 44.23122 | -64.89879 | 36772 ft | 563 kts | 64° |
| 2026-05-07 11:58 | 44.29235 | -64.69716 | 36771 ft | 564 kts | 64° |
| 2026-05-07 11:58 | 44.35316 | -64.49529 | 36758 ft | 564 kts | 64° |
| 2026-05-07 11:59 | 44.41359 | -64.29307 | 36801 ft | 563 kts | 65° |
| 2026-05-07 11:59 | 44.47345 | -64.09060 | 36798 ft | 562 kts | 65° |
| 2026-05-07 12:00 | 44.53254 | -63.89020 | 36801 ft | 560 kts | 64° |
| 2026-05-07 12:00 | 44.59244 | -63.68868 | 36865 ft | 559 kts | 65° |
| 2026-05-07 12:01 | 44.65156 | -63.48700 | 36885 ft | 557 kts | 65° |
| 2026-05-07 12:01 | 44.71017 | -63.28569 | 36866 ft | 556 kts | 65° |
| 2026-05-07 12:02 | 44.76825 | -63.08431 | 36872 ft | 554 kts | 65° |
| 2026-05-07 12:02 | 44.82579 | -62.88345 | 36867 ft | 552 kts | 65° |
| 2026-05-07 12:03 | 44.88286 | -62.68286 | 36902 ft | 551 kts | 66° |
| 2026-05-07 12:03 | 44.93923 | -62.48233 | 36872 ft | 547 kts | 66° |
| 2026-05-07 12:04 | 44.99492 | -62.28320 | 36906 ft | 544 kts | 66° |
| 2026-05-07 12:04 | 45.05000 | -62.08444 | 36901 ft | 541 kts | 66° |
| 2026-05-07 12:05 | 45.10434 | -61.88658 | 36921 ft | 538 kts | 67° |
| 2026-05-07 12:05 | 45.16479 | -61.69539 | 36913 ft | 534 kts | 62° |
| 2026-05-07 12:06 | 45.22782 | -61.50491 | 36915 ft | 533 kts | 63° |
| 2026-05-07 12:06 | 45.28856 | -61.31270 | 36922 ft | 533 kts | 63° |
| 2026-05-07 12:07 | 45.34947 | -61.12044 | 36951 ft | 532 kts | 64° |
| 2026-05-07 12:07 | 45.40996 | -60.92860 | 36934 ft | 530 kts | 64° |
| 2026-05-07 12:08 | 45.46973 | -60.73686 | 36949 ft | 529 kts | 65° |
| 2026-05-07 12:08 | 45.52908 | -60.54556 | 36964 ft | 527 kts | 65° |
| 2026-05-07 12:09 | 45.58798 | -60.35407 | 36982 ft | 526 kts | 66° |
| 2026-05-07 12:09 | 45.64592 | -60.16400 | 36990 ft | 525 kts | 66° |
| 2026-05-07 12:10 | 45.70398 | -59.97233 | 37010 ft | 524 kts | 66° |
| 2026-05-07 12:10 | 45.79386 | -59.67327 | 37035 ft | 521 kts | 67° |
| 2026-05-07 12:11 | 45.89192 | -59.34185 | 37006 ft | 514 kts | 67° |
| 2026-05-07 12:11 | 45.93779 | -59.18613 | 37002 ft | 512 kts | 68° |
| 2026-05-07 12:12 | 45.96532 | -59.09175 | 37023 ft | 512 kts | 68° |
| 2026-05-07 12:12 | 45.99285 | -58.99718 | 37031 ft | 512 kts | 68° |
| 2026-05-07 12:13 | 46.02024 | -58.90256 | 37062 ft | 512 kts | 68° |
| 2026-05-07 12:13 | 46.04741 | -58.80851 | 37073 ft | 512 kts | 68° |
| 2026-05-07 12:14 | 46.07463 | -58.71392 | 37026 ft | 511 kts | 68° |
| 2026-05-07 12:14 | 46.10172 | -58.61949 | 37059 ft | 509 kts | 68° |
| 2026-05-07 12:15 | 46.12862 | -58.52505 | 37076 ft | 508 kts | 69° |
| 2026-05-07 12:15 | 46.15539 | -58.43084 | 37092 ft | 506 kts | 69° |
| 2026-05-07 12:16 | 46.18196 | -58.33691 | 37097 ft | 504 kts | 69° |
| 2026-05-07 12:16 | 46.20835 | -58.24334 | 37101 ft | 503 kts | 69° |
| 2026-05-07 12:17 | 46.23464 | -58.14986 | 37093 ft | 502 kts | 69° |
| 2026-05-07 12:17 | 46.26066 | -58.05685 | 37103 ft | 501 kts | 70° |
| 2026-05-07 12:18 | 46.28663 | -57.96343 | 37083 ft | 500 kts | 70° |
| 2026-05-07 12:18 | 46.31255 | -57.87026 | 37095 ft | 499 kts | 70° |
| 2026-05-07 12:19 | 46.33841 | -57.77712 | 37101 ft | 498 kts | 70° |
| 2026-05-07 12:19 | 46.36407 | -57.68411 | 37112 ft | 498 kts | 70° |
| 2026-05-07 12:20 | 46.38964 | -57.59089 | 37111 ft | 497 kts | 70° |
| 2026-05-07 12:20 | 46.41509 | -57.49763 | 37112 ft | 497 kts | 70° |
| 2026-05-07 12:21 | 46.44034 | -57.40499 | 37111 ft | 497 kts | 70° |
| 2026-05-07 12:21 | 46.46566 | -57.31167 | 37113 ft | 497 kts | 71° |
| 2026-05-07 12:22 | 46.49077 | -57.21835 | 37116 ft | 496 kts | 71° |
| 2026-05-07 12:22 | 46.51584 | -57.12530 | 37133 ft | 495 kts | 71° |
| 2026-05-07 12:23 | 46.54082 | -57.03237 | 37132 ft | 494 kts | 71° |
| 2026-05-07 12:23 | 46.56571 | -56.93938 | 37132 ft | 494 kts | 71° |
| 2026-05-07 12:24 | 46.59045 | -56.84634 | 37145 ft | 493 kts | 72° |
| 2026-05-07 12:24 | 46.61511 | -56.75325 | 37146 ft | 493 kts | 72° |
| 2026-05-07 12:25 | 46.63968 | -56.66017 | 37143 ft | 492 kts | 72° |
| 2026-05-07 12:25 | 46.66416 | -56.56710 | 37140 ft | 492 kts | 72° |
| 2026-05-07 12:26 | 46.68851 | -56.47398 | 37120 ft | 492 kts | 72° |
| 2026-05-07 12:26 | 46.71264 | -56.38135 | 37137 ft | 491 kts | 72° |
| 2026-05-07 12:27 | 46.73684 | -56.28827 | 37148 ft | 491 kts | 72° |
| 2026-05-07 12:27 | 46.76099 | -56.19505 | 37167 ft | 491 kts | 72° |
| 2026-05-07 12:28 | 46.78498 | -56.10180 | 37169 ft | 491 kts | 73° |
| 2026-05-07 12:28 | 46.80889 | -56.00853 | 37178 ft | 490 kts | 73° |
| 2026-05-07 12:29 | 46.83274 | -55.91540 | 37178 ft | 490 kts | 73° |
| 2026-05-07 12:29 | 46.85652 | -55.82189 | 37179 ft | 490 kts | 73° |
| 2026-05-07 12:30 | 46.88015 | -55.72857 | 37157 ft | 489 kts | 73° |
| 2026-05-07 12:30 | 46.90371 | -55.63530 | 37175 ft | 489 kts | 73° |
| 2026-05-07 12:31 | 46.94853 | -55.45676 | 37182 ft | 488 kts | 73° |
| 2026-05-07 12:31 | 46.99509 | -55.27002 | 37196 ft | 488 kts | 73° |
| 2026-05-07 12:32 | 47.04125 | -55.08326 | 37209 ft | 487 kts | 73° |
| 2026-05-07 12:32 | 47.08683 | -54.89616 | 37209 ft | 486 kts | 73° |
| 2026-05-07 12:33 | 47.15480 | -54.61594 | 37218 ft | 485 kts | 73° |
| 2026-05-07 12:33 | 47.19972 | -54.42899 | 37220 ft | 485 kts | 73° |
| 2026-05-07 12:34 | 47.24413 | -54.24173 | 37228 ft | 484 kts | 73° |
| 2026-05-07 12:34 | 47.28790 | -54.05422 | 37225 ft | 483 kts | 78° |
| 2026-05-07 12:35 | 47.31064 | -53.86054 | 37239 ft | 479 kts | 84° |
| 2026-05-07 12:35 | 47.33200 | -53.66659 | 37237 ft | 479 kts | 84° |
| 2026-05-07 12:36 | 47.35271 | -53.47381 | 37232 ft | 478 kts | 84° |
| 2026-05-07 12:36 | 47.36860 | -53.32368 | 35902 ft | 489 kts | 84° |
| 2026-05-07 12:37 | 47.37410 | -53.26987 | 32844 ft | 567 kts | 84° |
| 2026-05-07 12:37 | 47.37148 | -53.21294 | 28783 ft | 512 kts | 126° |
| 2026-05-07 12:37 | 47.36244 | -53.19076 | 20634 ft | 196 kts | 136° |
| 2026-05-07 12:37 | 47.36516 | -53.18958 | 1516 ft | 343 kts | 40° |
| 2026-05-07 12:38 | 47.36582 | -53.18862 | 426 ft | 3 kts | 125° |
| 2026-05-07 12:38 | 47.36578 | -53.18866 | 426 ft | 0 kts | 120° |